sensor_id;sensor_type;location;lat;lon;timestamp;pressure;altitude;pressure_sealevel;temperature;humidity
73240;BME280;61452;40.054;4.110;2024-02-15T00:03:56;102448.16;;;15.64;100.00
73240;BME280;61452;40.054;4.110;2024-02-15T00:08:59;102448.91;;;15.67;100.00
73240;BME280;61452;40.054;4.110;2024-02-15T00:14:01;102448.06;;;15.67;100.00
73240;BME280;61452;40.054;4.110;2024-02-15T00:19:03;102440.03;;;15.68;100.00
73240;BME280;61452;40.054;4.110;2024-02-15T00:24:05;102436.66;;;15.65;100.00
73240;BME280;61452;40.054;4.110;2024-02-15T00:29:09;102420.84;;;15.63;100.00
73240;BME280;61452;40.054;4.110;2024-02-15T00:34:12;102425.94;;;15.68;100.00
73240;BME280;61452;40.054;4.110;2024-02-15T00:39:14;102420.72;;;15.66;100.00
73240;BME280;61452;40.054;4.110;2024-02-15T00:44:20;102417.22;;;15.66;100.00
73240;BME280;61452;40.054;4.110;2024-02-15T00:49:22;102416.31;;;15.67;100.00
73240;BME280;61452;40.054;4.110;2024-02-15T00:54:25;102412.91;;;15.63;100.00
73240;BME280;61452;40.054;4.110;2024-02-15T00:59:27;102410.28;;;15.63;100.00
73240;BME280;61452;40.054;4.110;2024-02-15T01:04:29;102412.06;;;15.63;100.00
73240;BME280;61452;40.054;4.110;2024-02-15T01:09:31;102400.56;;;15.64;100.00
73240;BME280;61452;40.054;4.110;2024-02-15T01:14:33;102402.28;;;15.65;100.00
73240;BME280;61452;40.054;4.110;2024-02-15T01:19:36;102405.78;;;15.65;100.00
73240;BME280;61452;40.054;4.110;2024-02-15T01:24:38;102401.34;;;15.66;100.00
73240;BME280;61452;40.054;4.110;2024-02-15T01:29:40;102399.69;;;15.63;100.00
73240;BME280;61452;40.054;4.110;2024-02-15T01:34:44;102400.63;;;15.62;100.00
73240;BME280;61452;40.054;4.110;2024-02-15T01:39:46;102393.47;;;15.64;100.00
73240;BME280;61452;40.054;4.110;2024-02-15T01:44:48;102381.13;;;15.65;100.00
73240;BME280;61452;40.054;4.110;2024-02-15T01:49:52;102374.91;;;15.66;100.00
73240;BME280;61452;40.054;4.110;2024-02-15T01:54:54;102359.09;;;15.64;100.00
73240;BME280;61452;40.054;4.110;2024-02-15T01:59:56;102356.59;;;15.61;100.00
73240;BME280;61452;40.054;4.110;2024-02-15T02:04:59;102345.00;;;15.64;100.00
73240;BME280;61452;40.054;4.110;2024-02-15T02:10:01;102343.16;;;15.66;100.00
73240;BME280;61452;40.054;4.110;2024-02-15T02:15:04;102338.84;;;15.63;100.00
73240;BME280;61452;40.054;4.110;2024-02-15T02:20:07;102337.94;;;15.64;100.00
73240;BME280;61452;40.054;4.110;2024-02-15T02:25:11;102333.56;;;15.63;100.00
73240;BME280;61452;40.054;4.110;2024-02-15T02:30:15;102329.13;;;15.64;100.00
73240;BME280;61452;40.054;4.110;2024-02-15T02:35:20;102313.25;;;15.64;100.00
73240;BME280;61452;40.054;4.110;2024-02-15T02:40:23;102315.00;;;15.65;100.00
73240;BME280;61452;40.054;4.110;2024-02-15T02:45:25;102311.47;;;15.64;100.00
73240;BME280;61452;40.054;4.110;2024-02-15T02:50:27;102315.00;;;15.65;100.00
73240;BME280;61452;40.054;4.110;2024-02-15T02:55:29;102313.31;;;15.62;100.00
73240;BME280;61452;40.054;4.110;2024-02-15T03:00:32;102306.34;;;15.61;100.00
73240;BME280;61452;40.054;4.110;2024-02-15T03:05:35;102292.16;;;15.62;100.00
73240;BME280;61452;40.054;4.110;2024-02-15T03:10:37;102292.09;;;15.64;100.00
73240;BME280;61452;40.054;4.110;2024-02-15T03:15:40;102290.31;;;15.64;100.00
73240;BME280;61452;40.054;4.110;2024-02-15T03:20:43;102293.03;;;15.63;100.00
73240;BME280;61452;40.054;4.110;2024-02-15T03:25:46;102303.69;;;15.61;100.00
73240;BME280;61452;40.054;4.110;2024-02-15T03:30:48;102303.69;;;15.61;100.00
73240;BME280;61452;40.054;4.110;2024-02-15T03:35:50;102308.91;;;15.63;100.00
73240;BME280;61452;40.054;4.110;2024-02-15T03:40:52;102307.13;;;15.63;100.00
73240;BME280;61452;40.054;4.110;2024-02-15T03:45:55;102306.25;;;15.63;100.00
73240;BME280;61452;40.054;4.110;2024-02-15T03:50:59;102302.75;;;15.62;100.00
73240;BME280;61452;40.054;4.110;2024-02-15T03:56:04;102306.25;;;15.63;100.00
73240;BME280;61452;40.054;4.110;2024-02-15T04:01:06;102312.47;;;15.62;100.00
73240;BME280;61452;40.054;4.110;2024-02-15T04:06:11;102315.06;;;15.63;100.00
73240;BME280;61452;40.054;4.110;2024-02-15T04:11:13;102305.34;;;15.64;100.00
73240;BME280;61452;40.054;4.110;2024-02-15T04:16:18;102300.09;;;15.62;100.00
73240;BME280;61452;40.054;4.110;2024-02-15T04:21:20;102297.56;;;15.61;100.00
73240;BME280;61452;40.054;4.110;2024-02-15T04:26:22;102300.09;;;15.62;100.00
73240;BME280;61452;40.054;4.110;2024-02-15T04:31:28;102292.31;;;15.59;100.00
73240;BME280;61452;40.054;4.110;2024-02-15T04:36:30;102286.09;;;15.60;100.00
73240;BME280;61452;40.054;4.110;2024-02-15T04:41:35;102272.78;;;15.62;100.00
73240;BME280;61452;40.054;4.110;2024-02-15T04:46:40;102256.00;;;15.63;100.00
73240;BME280;61452;40.054;4.110;2024-02-15T04:51:43;102256.91;;;15.62;100.00
73240;BME280;61452;40.054;4.110;2024-02-15T04:56:45;102255.22;;;15.61;100.00
73240;BME280;61452;40.054;4.110;2024-02-15T05:01:48;102249.09;;;15.60;100.00
73240;BME280;61452;40.054;4.110;2024-02-15T05:06:51;102249.94;;;15.61;100.00
73240;BME280;61452;40.054;4.110;2024-02-15T05:11:55;102235.91;;;15.59;100.00
73240;BME280;61452;40.054;4.110;2024-02-15T05:16:57;102236.78;;;15.59;100.00
73240;BME280;61452;40.054;4.110;2024-02-15T05:21:59;102230.47;;;15.62;100.00
73240;BME280;61452;40.054;4.110;2024-02-15T05:27:01;102238.41;;;15.62;100.00
73240;BME280;61452;40.054;4.110;2024-02-15T05:32:03;102230.75;;;15.56;100.00
73240;BME280;61452;40.054;4.110;2024-02-15T05:37:05;102233.28;;;15.59;100.00
73240;BME280;61452;40.054;4.110;2024-02-15T05:42:08;102233.22;;;15.60;100.00
73240;BME280;61452;40.054;4.110;2024-02-15T05:47:12;102233.28;;;15.59;100.00
73240;BME280;61452;40.054;4.110;2024-02-15T05:52:14;102220.00;;;15.60;100.00
73240;BME280;61452;40.054;4.110;2024-02-15T05:57:17;102217.34;;;15.60;100.00
73240;BME280;61452;40.054;4.110;2024-02-15T06:02:19;102212.91;;;15.61;100.00
73240;BME280;61452;40.054;4.110;2024-02-15T06:07:21;102226.16;;;15.61;100.00
73240;BME280;61452;40.054;4.110;2024-02-15T06:12:24;102219.13;;;15.60;100.00
73240;BME280;61452;40.054;4.110;2024-02-15T06:17:26;102212.13;;;15.59;100.00
73240;BME280;61452;40.054;4.110;2024-02-15T06:22:28;102213.91;;;15.58;100.00
73240;BME280;61452;40.054;4.110;2024-02-15T06:27:32;102220.06;;;15.59;100.00
73240;BME280;61452;40.054;4.110;2024-02-15T06:32:34;102213.84;;;15.60;100.00
73240;BME280;61452;40.054;4.110;2024-02-15T06:37:54;102212.91;;;15.61;100.00
73240;BME280;61452;40.054;4.110;2024-02-15T06:43:15;102216.50;;;15.60;100.00
73240;BME280;61452;40.054;4.110;2024-02-15T06:48:18;102209.53;;;15.57;100.00
73240;BME280;61452;40.054;4.110;2024-02-15T06:53:20;102213.03;;;15.58;100.00
73240;BME280;61452;40.054;4.110;2024-02-15T06:58:22;102199.75;;;15.59;100.00
73240;BME280;61452;40.054;4.110;2024-02-15T07:03:24;102214.69;;;15.60;100.00
73240;BME280;61452;40.054;4.110;2024-02-15T07:08:26;102220.00;;;15.60;100.00
73240;BME280;61452;40.054;4.110;2024-02-15T07:13:28;102220.00;;;15.60;100.00
73240;BME280;61452;40.054;4.110;2024-02-15T07:18:30;102232.41;;;15.58;100.00
73240;BME280;61452;40.054;4.110;2024-02-15T07:23:33;102229.66;;;15.61;100.00
73240;BME280;61452;40.054;4.110;2024-02-15T07:28:39;102232.34;;;15.60;100.00
73240;BME280;61452;40.054;4.110;2024-02-15T07:33:41;102218.28;;;15.59;100.00
73240;BME280;61452;40.054;4.110;2024-02-15T07:38:45;102218.28;;;15.59;100.00
73240;BME280;61452;40.054;4.110;2024-02-15T07:43:51;102230.63;;;15.59;100.00
73240;BME280;61452;40.054;4.110;2024-02-15T07:48:54;102235.06;;;15.58;100.00
73240;BME280;61452;40.054;4.110;2024-02-15T07:53:56;102235.91;;;15.59;100.00
73240;BME280;61452;40.054;4.110;2024-02-15T07:58:58;102243.78;;;15.60;100.00
73240;BME280;61452;40.054;4.110;2024-02-15T08:04:01;102241.22;;;15.59;100.00
73240;BME280;61452;40.054;4.110;2024-02-15T08:09:03;102249.16;;;15.59;100.00
73240;BME280;61452;40.054;4.110;2024-02-15T08:14:06;102252.72;;;15.58;100.00
73240;BME280;61452;40.054;4.110;2024-02-15T08:19:14;102256.22;;;15.58;100.00
73240;BME280;61452;40.054;4.110;2024-02-15T08:24:17;102263.22;;;15.59;100.00
73240;BME280;61452;40.054;4.110;2024-02-15T08:29:19;102251.72;;;15.60;100.00
73240;BME280;61452;40.054;4.110;2024-02-15T08:34:21;102257.88;;;15.61;100.00
73240;BME280;61452;40.054;4.110;2024-02-15T08:39:23;102257.94;;;15.59;100.00
73240;BME280;61452;40.054;4.110;2024-02-15T08:44:25;102263.22;;;15.59;100.00
73240;BME280;61452;40.054;4.110;2024-02-15T08:49:27;102265.00;;;15.59;100.00
73240;BME280;61452;40.054;4.110;2024-02-15T08:54:33;102267.59;;;15.60;100.00
73240;BME280;61452;40.054;4.110;2024-02-15T08:59:35;102262.38;;;15.59;100.00
73240;BME280;61452;40.054;4.110;2024-02-15T09:04:37;102257.09;;;15.59;100.00
73240;BME280;61452;40.054;4.110;2024-02-15T09:09:41;102273.94;;;15.56;100.00
73240;BME280;61452;40.054;4.110;2024-02-15T09:14:43;102270.31;;;15.59;100.00
73240;BME280;61452;40.054;4.110;2024-02-15T09:19:48;102263.22;;;15.59;100.00
73240;BME280;61452;40.054;4.110;2024-02-15T09:24:53;102264.22;;;15.57;100.00
73240;BME280;61452;40.054;4.110;2024-02-15T09:29:55;102256.22;;;15.58;100.00
73240;BME280;61452;40.054;4.110;2024-02-15T09:34:57;102251.00;;;15.57;100.00
73240;BME280;61452;40.054;4.110;2024-02-15T09:40:00;102246.56;;;15.57;100.00
73240;BME280;61452;40.054;4.110;2024-02-15T09:45:08;102252.72;;;15.58;100.00
73240;BME280;61452;40.054;4.110;2024-02-15T09:50:17;102243.00;;;15.58;100.00
73240;BME280;61452;40.054;4.110;2024-02-15T09:55:20;102254.50;;;15.57;100.00
73240;BME280;61452;40.054;4.110;2024-02-15T10:00:25;102242.13;;;15.58;100.00
73240;BME280;61452;40.054;4.110;2024-02-15T10:05:28;102242.19;;;15.56;100.00
73240;BME280;61452;40.054;4.110;2024-02-15T10:10:30;102236.00;;;15.57;100.00
73240;BME280;61452;40.054;4.110;2024-02-15T10:15:39;102241.28;;;15.57;100.00
73240;BME280;61452;40.054;4.110;2024-02-15T10:20:57;102240.34;;;15.58;100.00
73240;BME280;61452;40.054;4.110;2024-02-15T10:25:59;102230.69;;;15.57;100.00
73240;BME280;61452;40.054;4.110;2024-02-15T10:31:07;102243.06;;;15.57;100.00
73240;BME280;61452;40.054;4.110;2024-02-15T10:36:10;102237.72;;;15.58;100.00
73240;BME280;61452;40.054;4.110;2024-02-15T10:41:14;102230.69;;;15.57;100.00
73240;BME280;61452;40.054;4.110;2024-02-15T10:46:17;102227.06;;;15.60;100.00
73240;BME280;61452;40.054;4.110;2024-02-15T10:51:21;102223.50;;;15.61;100.00
73240;BME280;61452;40.054;4.110;2024-02-15T10:56:33;102215.63;;;15.59;100.00
73240;BME280;61452;40.054;4.110;2024-02-15T11:01:38;102206.03;;;15.57;100.00
73240;BME280;61452;40.054;4.110;2024-02-15T11:06:44;102203.38;;;15.57;100.00
73240;BME280;61452;40.054;4.110;2024-02-15T11:11:47;102195.47;;;15.57;100.00
73240;BME280;61452;40.054;4.110;2024-02-15T11:16:52;102182.22;;;15.57;100.00
73240;BME280;61452;40.054;4.110;2024-02-15T11:21:55;102179.53;;;15.58;100.00
73240;BME280;61452;40.054;4.110;2024-02-15T11:27:01;102167.97;;;15.61;100.00
73240;BME280;61452;40.054;4.110;2024-02-15T11:32:07;102151.22;;;15.60;100.00
73240;BME280;61452;40.054;4.110;2024-02-15T11:43:48;102138.19;;;15.56;100.00
73240;BME280;61452;40.054;4.110;2024-02-15T11:49:03;102127.56;;;15.57;100.00
73240;BME280;61452;40.054;4.110;2024-02-15T11:54:08;102121.28;;;15.60;100.00
73240;BME280;61452;40.054;4.110;2024-02-15T11:59:13;102107.25;;;15.58;100.00
73240;BME280;61452;40.054;4.110;2024-02-15T12:04:31;102090.28;;;15.62;100.00
73240;BME280;61452;40.054;4.110;2024-02-15T12:09:58;102094.66;;;15.63;100.00
73240;BME280;61452;40.054;4.110;2024-02-15T12:15:19;102083.22;;;15.62;100.00
73240;BME280;61452;40.054;4.110;2024-02-15T12:20:40;102077.06;;;15.62;100.00
73240;BME280;61452;40.054;4.110;2024-02-15T12:25:42;102066.66;;;15.59;100.00
73240;BME280;61452;40.054;4.110;2024-02-15T12:30:44;102060.38;;;15.61;100.00
73240;BME280;61452;40.054;4.110;2024-02-15T12:35:46;102054.91;;;15.64;100.00
73240;BME280;61452;40.054;4.110;2024-02-15T12:40:48;102050.50;;;15.65;100.00
73240;BME280;61452;40.054;4.110;2024-02-15T12:45:50;102040.78;;;15.65;100.00
73240;BME280;61452;40.054;4.110;2024-02-15T12:50:52;102019.75;;;15.62;100.00
73240;BME280;61452;40.054;4.110;2024-02-15T12:55:56;102006.53;;;15.62;100.00
73240;BME280;61452;40.054;4.110;2024-02-15T13:00:59;102005.66;;;15.62;100.00
73240;BME280;61452;40.054;4.110;2024-02-15T13:06:02;101999.31;;;15.66;100.00
73240;BME280;61452;40.054;4.110;2024-02-15T13:11:04;101980.78;;;15.66;100.00
73240;BME280;61452;40.054;4.110;2024-02-15T13:16:06;101963.28;;;15.63;100.00
73240;BME280;61452;40.054;4.110;2024-02-15T13:21:09;101970.28;;;15.64;100.00
73240;BME280;61452;40.054;4.110;2024-02-15T13:26:12;101965.84;;;15.65;100.00
73240;BME280;61452;40.054;4.110;2024-02-15T13:31:15;101952.69;;;15.63;100.00
73240;BME280;61452;40.054;4.110;2024-02-15T13:36:17;101949.91;;;15.66;100.00
73240;BME280;61452;40.054;4.110;2024-02-15T13:41:19;101933.94;;;15.68;100.00
73240;BME280;61452;40.054;4.110;2024-02-15T13:46:21;101937.56;;;15.67;100.00
73240;BME280;61452;40.054;4.110;2024-02-15T13:51:23;101942.84;;;15.67;100.00
73240;BME280;61452;40.054;4.110;2024-02-15T13:56:27;101934.81;;;15.68;100.00
73240;BME280;61452;40.054;4.110;2024-02-15T14:01:29;101929.44;;;15.70;100.00
73240;BME280;61452;40.054;4.110;2024-02-15T14:06:31;101928.50;;;15.71;100.00
73240;BME280;61452;40.054;4.110;2024-02-15T14:11:33;101919.66;;;15.72;100.00
73240;BME280;61452;40.054;4.110;2024-02-15T14:16:35;101922.28;;;15.72;100.00
73240;BME280;61452;40.054;4.110;2024-02-15T14:21:37;101912.78;;;15.68;100.00
73240;BME280;61452;40.054;4.110;2024-02-15T14:26:40;101917.25;;;15.67;100.00
73240;BME280;61452;40.054;4.110;2024-02-15T14:31:42;101911.63;;;15.73;100.00
73240;BME280;61452;40.054;4.110;2024-02-15T14:37:03;101897.56;;;15.73;100.00
73240;BME280;61452;40.054;4.110;2024-02-15T14:42:07;101898.41;;;15.73;100.00
73240;BME280;61452;40.054;4.110;2024-02-15T14:47:12;101889.69;;;15.71;100.00
73240;BME280;61452;40.054;4.110;2024-02-15T14:52:14;101896.69;;;15.72;100.00
73240;BME280;61452;40.054;4.110;2024-02-15T14:57:16;101893.13;;;15.73;100.00
73240;BME280;61452;40.054;4.110;2024-02-15T15:02:22;101898.25;;;15.76;100.00
73240;BME280;61452;40.054;4.110;2024-02-15T15:07:24;101896.53;;;15.75;100.00
73240;BME280;61452;40.054;4.110;2024-02-15T15:12:45;101886.78;;;15.76;100.00
73240;BME280;61452;40.054;4.110;2024-02-15T15:17:47;101874.59;;;15.73;100.00
73240;BME280;61452;40.054;4.110;2024-02-15T15:22:49;101873.75;;;15.73;100.00
73240;BME280;61452;40.054;4.110;2024-02-15T15:27:51;101862.91;;;15.77;100.00
73240;BME280;61452;40.054;4.110;2024-02-15T15:32:53;101858.63;;;15.75;100.00
73240;BME280;61452;40.054;4.110;2024-02-15T15:37:58;101857.44;;;15.81;100.00
73240;BME280;61452;40.054;4.110;2024-02-15T15:43:00;101864.63;;;15.78;100.00
73240;BME280;61452;40.054;4.110;2024-02-15T15:48:04;101863.78;;;15.78;100.00
73240;BME280;61452;40.054;4.110;2024-02-15T15:53:08;101875.22;;;15.78;100.00
73240;BME280;61452;40.054;4.110;2024-02-15T15:58:12;101871.78;;;15.76;100.00
73240;BME280;61452;40.054;4.110;2024-02-15T16:03:14;101868.22;;;15.77;100.00
73240;BME280;61452;40.054;4.110;2024-02-15T16:08:17;101869.06;;;15.78;100.00
73240;BME280;61452;40.054;4.110;2024-02-15T16:13:21;101875.28;;;15.77;100.00
73240;BME280;61452;40.054;4.110;2024-02-15T16:18:24;101870.78;;;15.79;100.00
73240;BME280;61452;40.054;4.110;2024-02-15T16:23:27;101869.75;;;15.82;100.00
73240;BME280;61452;40.054;4.110;2024-02-15T16:28:29;101860.88;;;15.83;100.00
73240;BME280;61452;40.054;4.110;2024-02-15T16:33:31;101858.22;;;15.83;100.00
73240;BME280;61452;40.054;4.110;2024-02-15T16:38:35;101847.81;;;15.80;100.00
73240;BME280;61452;40.054;4.110;2024-02-15T16:43:37;101847.66;;;15.83;100.00
73240;BME280;61452;40.054;4.110;2024-02-15T16:48:39;101843.22;;;15.83;100.00
73240;BME280;61452;40.054;4.110;2024-02-15T16:53:42;101840.56;;;15.83;100.00
73240;BME280;61452;40.054;4.110;2024-02-15T16:58:45;101841.44;;;15.84;100.00
73240;BME280;61452;40.054;4.110;2024-02-15T17:03:48;101830.91;;;15.82;100.00
73240;BME280;61452;40.054;4.110;2024-02-15T17:08:52;101820.34;;;15.82;100.00
73240;BME280;61452;40.054;4.110;2024-02-15T17:13:57;101825.63;;;15.82;100.00
73240;BME280;61452;40.054;4.110;2024-02-15T17:19:03;101833.63;;;15.81;100.00
73240;BME280;61452;40.054;4.110;2024-02-15T17:24:08;101828.34;;;15.81;100.00
73240;BME280;61452;40.054;4.110;2024-02-15T17:29:12;101828.28;;;15.82;100.00
73240;BME280;61452;40.054;4.110;2024-02-15T17:34:15;101825.69;;;15.81;100.00
73240;BME280;61452;40.054;4.110;2024-02-15T17:39:17;101837.84;;;15.85;100.00
73240;BME280;61452;40.054;4.110;2024-02-15T17:44:19;101852.78;;;15.86;100.00
73240;BME280;61452;40.054;4.110;2024-02-15T17:49:21;101854.47;;;15.87;100.00
73240;BME280;61452;40.054;4.110;2024-02-15T17:54:23;101856.38;;;15.85;100.00
73240;BME280;61452;40.054;4.110;2024-02-15T17:59:26;101860.88;;;15.83;100.00
73240;BME280;61452;40.054;4.110;2024-02-15T18:04:28;101856.44;;;15.83;100.00
73240;BME280;61452;40.054;4.110;2024-02-15T18:09:30;101867.69;;;15.87;100.00
73240;BME280;61452;40.054;4.110;2024-02-15T18:14:32;101868.56;;;15.87;100.00
73240;BME280;61452;40.054;4.110;2024-02-15T18:19:34;101865.91;;;15.87;100.00
73240;BME280;61452;40.054;4.110;2024-02-15T18:24:37;101886.41;;;15.84;100.00
73240;BME280;61452;40.054;4.110;2024-02-15T18:29:39;101888.13;;;15.85;100.00
73240;BME280;61452;40.054;4.110;2024-02-15T18:34:41;101878.28;;;15.87;100.00
73240;BME280;61452;40.054;4.110;2024-02-15T18:39:44;101887.88;;;15.89;100.00
73240;BME280;61452;40.054;4.110;2024-02-15T18:44:46;101877.34;;;15.88;100.00
73240;BME280;61452;40.054;4.110;2024-02-15T18:49:48;101867.81;;;15.85;100.00
73240;BME280;61452;40.054;4.110;2024-02-15T18:55:00;101849.38;;;15.84;100.00
73240;BME280;61452;40.054;4.110;2024-02-15T19:00:02;101858.09;;;15.86;100.00
73240;BME280;61452;40.054;4.110;2024-02-15T19:05:24;101853.53;;;15.88;100.00
73240;BME280;61452;40.054;4.110;2024-02-15T19:10:28;101858.84;;;15.88;100.00
73240;BME280;61452;40.054;4.110;2024-02-15T19:15:30;101860.53;;;15.89;100.00
73240;BME280;61452;40.054;4.110;2024-02-15T19:20:34;101859.00;;;15.85;100.00
73240;BME280;61452;40.054;4.110;2024-02-15T19:25:36;101879.06;;;15.89;100.00
73240;BME280;61452;40.054;4.110;2024-02-15T19:30:38;101867.56;;;15.90;100.00
73240;BME280;61452;40.054;4.110;2024-02-15T19:35:41;101855.25;;;15.89;100.00
73240;BME280;61452;40.054;4.110;2024-02-15T19:40:44;101857.84;;;15.90;100.00
73240;BME280;61452;40.054;4.110;2024-02-15T19:45:48;101857.97;;;15.87;100.00
73240;BME280;61452;40.054;4.110;2024-02-15T19:50:50;101856.25;;;15.86;100.00
73240;BME280;61452;40.054;4.110;2024-02-15T19:55:52;101849.88;;;15.90;100.00
73240;BME280;61452;40.054;4.110;2024-02-15T20:00:54;101846.47;;;15.88;100.00
73240;BME280;61452;40.054;4.110;2024-02-15T20:05:56;101824.38;;;15.89;100.00
73240;BME280;61452;40.054;4.110;2024-02-15T20:11:00;101826.22;;;15.87;100.00
73240;BME280;61452;40.054;4.110;2024-02-15T20:16:03;101820.06;;;15.87;100.00
73240;BME280;61452;40.054;4.110;2024-02-15T20:21:06;101833.31;;;15.87;100.00
73240;BME280;61452;40.054;4.110;2024-02-15T20:26:12;101838.53;;;15.88;100.00
73240;BME280;61452;40.054;4.110;2024-02-15T20:31:14;101849.03;;;15.90;100.00
73240;BME280;61452;40.054;4.110;2024-02-15T20:36:19;101836.91;;;15.86;100.00
73240;BME280;61452;40.054;4.110;2024-02-15T20:41:22;101850.03;;;15.87;100.00
73240;BME280;61452;40.054;4.110;2024-02-15T20:46:29;101836.75;;;15.89;100.00
73240;BME280;61452;40.054;4.110;2024-02-15T20:51:35;101842.97;;;15.88;100.00
73240;BME280;61452;40.054;4.110;2024-02-15T20:56:38;101842.81;;;15.91;100.00
73240;BME280;61452;40.054;4.110;2024-02-15T21:01:40;101830.50;;;15.90;100.00
73240;BME280;61452;40.054;4.110;2024-02-15T21:06:42;101822.66;;;15.88;100.00
73240;BME280;61452;40.054;4.110;2024-02-15T21:11:45;101815.97;;;15.81;100.00
73240;BME280;61452;40.054;4.110;2024-02-15T21:16:48;101827.00;;;15.89;100.00
73240;BME280;61452;40.054;4.110;2024-02-15T21:21:50;101834.78;;;15.92;100.00
73240;BME280;61452;40.054;4.110;2024-02-15T21:26:52;101828.88;;;15.87;100.00
73240;BME280;61452;40.054;4.110;2024-02-15T21:31:54;101840.25;;;15.89;100.00
73240;BME280;61452;40.054;4.110;2024-02-15T21:36:56;101834.16;;;15.87;100.00
73240;BME280;61452;40.054;4.110;2024-02-15T21:41:58;101831.53;;;15.87;100.00
73240;BME280;61452;40.054;4.110;2024-02-15T21:47:01;101824.44;;;15.88;100.00
73240;BME280;61452;40.054;4.110;2024-02-15T21:52:04;101811.28;;;15.86;100.00
73240;BME280;61452;40.054;4.110;2024-02-15T21:57:06;101812.91;;;15.89;100.00
73240;BME280;61452;40.054;4.110;2024-02-15T22:02:08;101803.19;;;15.89;100.00
73240;BME280;61452;40.054;4.110;2024-02-15T22:07:11;101807.56;;;15.90;100.00
73240;BME280;61452;40.054;4.110;2024-02-15T22:12:15;101790.91;;;15.88;100.00
73240;BME280;61452;40.054;4.110;2024-02-15T22:17:17;101796.28;;;15.87;100.00
73240;BME280;61452;40.054;4.110;2024-02-15T22:22:19;101799.69;;;15.89;100.00
73240;BME280;61452;40.054;4.110;2024-02-15T22:27:22;101795.34;;;15.88;100.00
73240;BME280;61452;40.054;4.110;2024-02-15T22:32:25;101788.25;;;15.88;100.00
73240;BME280;61452;40.054;4.110;2024-02-15T22:37:27;101768.03;;;15.87;100.00
73240;BME280;61452;40.054;4.110;2024-02-15T22:42:29;101768.97;;;15.86;100.00
73240;BME280;61452;40.054;4.110;2024-02-15T22:47:32;101767.16;;;15.87;100.00
73240;BME280;61452;40.054;4.110;2024-02-15T22:52:34;101771.53;;;15.88;100.00
73240;BME280;61452;40.054;4.110;2024-02-15T22:57:36;101768.03;;;15.87;100.00
73240;BME280;61452;40.054;4.110;2024-02-15T23:02:39;101758.28;;;15.88;100.00
73240;BME280;61452;40.054;4.110;2024-02-15T23:07:41;101750.44;;;15.86;100.00
73240;BME280;61452;40.054;4.110;2024-02-15T23:12:43;101744.22;;;15.87;100.00
73240;BME280;61452;40.054;4.110;2024-02-15T23:17:45;101737.97;;;15.88;100.00
73240;BME280;61452;40.054;4.110;2024-02-15T23:22:47;101737.13;;;15.88;100.00
73240;BME280;61452;40.054;4.110;2024-02-15T23:27:50;101730.97;;;15.87;100.00
73240;BME280;61452;40.054;4.110;2024-02-15T23:32:52;101722.19;;;15.87;100.00
73240;BME280;61452;40.054;4.110;2024-02-15T23:37:54;101719.72;;;15.84;100.00
73240;BME280;61452;40.054;4.110;2024-02-15T23:43:14;101712.66;;;15.84;100.00
73240;BME280;61452;40.054;4.110;2024-02-15T23:48:17;101718.69;;;15.86;100.00
73240;BME280;61452;40.054;4.110;2024-02-15T23:53:19;101715.97;;;15.88;100.00
73240;BME280;61452;40.054;4.110;2024-02-15T23:58:22;101725.63;;;15.89;100.00
